Time;durP1;ratioP1;P1;durP2;ratioP2;P2;SDS_P1;SDS_P2;PMS_P1;PMS_P2;Temp;Humidity;BMP_temperature;BMP_pressure;BME280_temperature;BME280_humidity;BME280_pressure;Samples;Min_cycle;Max_cycle;Signal;HPM_P1;HPM_P2
2023/05/17 00:00:39;;;;;;;;;;;8.90;99.90;;;;;;5058426;28;19925;-73
2023/05/17 00:03:05;;;;;;;;;;;8.80;99.90;;;;;;5033170;28;20016;-72
2023/05/17 00:05:30;;;;;;;;;;;8.90;99.90;;;;;;5046629;28;20363;-73
2023/05/17 00:07:56;;;;;;;;;;;8.90;99.90;;;;;;5072779;28;20026;-72
2023/05/17 00:10:21;;;;;;;;;;;9.00;99.90;;;;;;5064841;28;19931;-72
2023/05/17 00:12:47;;;;;;;;;;;8.90;99.90;;;;;;5054475;28;19986;-72
2023/05/17 00:15:13;;;;;;;;;;;9.00;99.90;;;;;;5059115;28;20386;-72
2023/05/17 00:17:39;;;;;;;;;;;9.00;99.90;;;;;;5062243;28;19925;-72
2023/05/17 00:20:04;;;;;;;;;;;9.00;99.90;;;;;;5064009;28;19929;-72
2023/05/17 00:22:30;;;;;;;;;;;8.90;99.90;;;;;;5065736;28;19932;-73
2023/05/17 00:24:55;;;;;;;;;;;9.00;99.90;;;;;;5052696;28;19982;-73
2023/05/17 00:27:21;;;;;;;;;;;8.90;99.90;;;;;;5072621;28;20025;-73
2023/05/17 00:29:46;;;;;;;;;;;8.80;99.90;;;;;;5065414;28;19929;-73
2023/05/17 00:32:12;;;;;;;;;;;8.80;99.90;;;;;;5071944;28;19928;-73
2023/05/17 00:34:37;;;;;;;;;;;8.90;99.90;;;;;;5066684;28;19924;-73
2023/05/17 00:37:03;;;;;;;;;;;8.80;99.90;;;;;;5071103;28;20378;-73
2023/05/17 00:39:29;;;;;;;;;;;8.70;99.90;;;;;;5058312;28;19925;-73
2023/05/17 00:41:54;;;;;;;;;;;8.70;99.90;;;;;;5067651;28;19932;-73
2023/05/17 00:44:20;;;;;;;;;;;8.80;99.90;;;;;;5073352;28;19932;-73
2023/05/17 00:46:45;;;;;;;;;;;8.80;99.90;;;;;;5072324;28;19925;-73
2023/05/17 00:49:21;;;;;;;;;;;8.80;99.90;;;;;;5070079;28;20715;-73
2023/05/17 00:51:47;;;;;;;;;;;8.80;99.90;;;;;;5067269;28;19924;-73
2023/05/17 00:54:12;;;;;;;;;;;8.80;99.90;;;;;;5052704;28;20370;-73
2023/05/17 00:56:38;;;;;;;;;;;8.80;99.90;;;;;;5033214;28;19970;-74
2023/05/17 00:59:05;;;;;;;;;;;8.80;99.90;;;;;;5049877;28;19933;-74
2023/05/17 01:01:34;;;;;;;;;;;8.90;99.90;;;;;;5055103;28;21607;-73
2023/05/17 01:03:59;;;;;;;;;;;8.90;99.90;;;;;;5037476;28;20544;-74
2023/05/17 01:06:25;;;;;;;;;;;8.90;99.90;;;;;;5054456;28;20018;-73
2023/05/17 01:08:51;;;;;;;;;;;8.90;99.90;;;;;;5056587;28;19933;-73
2023/05/17 01:11:27;;;;;;;;;;;8.90;99.90;;;;;;5055201;28;19928;-73
2023/05/17 01:14:17;;;;;;;;;;;8.80;99.90;;;;;;5055088;28;20007;-74
2023/05/17 01:16:44;;;;;;;;;;;8.80;99.90;;;;;;5039648;28;20028;-73
2023/05/17 01:19:28;;;;;;;;;;;8.90;99.90;;;;;;5071924;28;20364;-73
2023/05/17 01:21:53;;;;;;;;;;;8.80;99.90;;;;;;5067605;28;20804;-73
2023/05/17 01:24:48;;;;;;;;;;;8.80;99.90;;;;;;5042019;28;19972;-72
2023/05/17 01:27:14;;;;;;;;;;;8.90;99.90;;;;;;5032000;28;20394;-73
2023/05/17 01:29:42;;;;;;;;;;;8.90;99.90;;;;;;5044663;28;19962;-73
2023/05/17 01:32:07;;;;;;;;;;;8.90;99.90;;;;;;5037753;28;19939;-72
2023/05/17 01:34:33;;;;;;;;;;;8.90;99.90;;;;;;5059654;28;19929;-72
2023/05/17 01:36:59;;;;;;;;;;;8.90;99.90;;;;;;5066523;28;20405;-72
2023/05/17 01:39:24;;;;;;;;;;;8.90;99.90;;;;;;5060900;28;19925;-72
2023/05/17 01:41:56;;;;;;;;;;;8.90;99.90;;;;;;5060681;28;20362;-72
2023/05/17 01:44:32;;;;;;;;;;;8.90;99.90;;;;;;5054899;28;19951;-73
2023/05/17 01:47:05;;;;;;;;;;;8.90;99.90;;;;;;5066239;28;19932;-73
2023/05/17 01:49:33;;;;;;;;;;;8.90;99.90;;;;;;5052369;28;19952;-73
2023/05/17 01:52:04;;;;;;;;;;;8.80;99.90;;;;;;5044661;28;19960;-73
2023/05/17 01:54:31;;;;;;;;;;;8.90;99.90;;;;;;5064744;28;20020;-72
2023/05/17 01:56:57;;;;;;;;;;;8.80;99.90;;;;;;5041712;28;19928;-72
2023/05/17 01:59:24;;;;;;;;;;;8.70;99.90;;;;;;5066439;28;20504;-73
2023/05/17 02:01:57;;;;;;;;;;;8.70;99.90;;;;;;5062753;28;20374;-73
2023/05/17 02:04:25;;;;;;;;;;;8.70;99.90;;;;;;5063575;28;20007;-73
2023/05/17 02:06:51;;;;;;;;;;;8.70;99.90;;;;;;5065566;28;20024;-73
2023/05/17 02:09:16;;;;;;;;;;;8.60;99.90;;;;;;5063640;28;19932;-73
2023/05/17 02:11:42;;;;;;;;;;;8.50;99.90;;;;;;5062573;28;20037;-73
2023/05/17 02:14:07;;;;;;;;;;;8.50;99.90;;;;;;5058472;28;19924;-73
2023/05/17 02:16:33;;;;;;;;;;;8.40;99.90;;;;;;5067218;28;19928;-73
2023/05/17 02:18:58;;;;;;;;;;;8.40;99.90;;;;;;5061207;28;19964;-73
2023/05/17 02:21:24;;;;;;;;;;;8.40;99.90;;;;;;5062458;28;19970;-74
2023/05/17 02:23:49;;;;;;;;;;;8.40;99.90;;;;;;5067277;28;19925;-74
2023/05/17 02:26:15;;;;;;;;;;;8.40;99.90;;;;;;5064294;28;19932;-73
2023/05/17 02:28:40;;;;;;;;;;;8.40;99.90;;;;;;5062589;28;20331;-73
2023/05/17 02:31:07;;;;;;;;;;;8.40;99.90;;;;;;5073802;28;19924;-73
2023/05/17 02:33:34;;;;;;;;;;;8.30;99.90;;;;;;5074037;28;20456;-73
2023/05/17 02:35:59;;;;;;;;;;;8.40;99.90;;;;;;5068221;28;20430;-73
2023/05/17 02:38:25;;;;;;;;;;;8.30;99.90;;;;;;5066636;28;19931;-74
2023/05/17 02:40:50;;;;;;;;;;;8.30;99.90;;;;;;5072925;28;21820;-74
2023/05/17 02:43:16;;;;;;;;;;;8.30;99.90;;;;;;5067159;28;19975;-73
2023/05/17 02:45:42;;;;;;;;;;;8.30;99.90;;;;;;5073646;28;19924;-72
2023/05/17 02:48:07;;;;;;;;;;;8.30;99.90;;;;;;5044218;28;19925;-73
2023/05/17 02:50:33;;;;;;;;;;;8.30;99.90;;;;;;5072206;28;19977;-74
2023/05/17 02:52:59;;;;;;;;;;;8.20;99.90;;;;;;5067734;28;19968;-72
2023/05/17 02:55:24;;;;;;;;;;;8.30;99.90;;;;;;5070052;28;20399;-72
2023/05/17 02:57:53;;;;;;;;;;;8.20;99.90;;;;;;5064244;28;19932;-72
2023/05/17 03:00:22;;;;;;;;;;;8.20;99.90;;;;;;5057155;28;19929;-72
2023/05/17 03:02:47;;;;;;;;;;;8.30;99.90;;;;;;5059283;28;20382;-72
2023/05/17 03:05:15;;;;;;;;;;;8.30;99.90;;;;;;5063611;28;19932;-73
2023/05/17 03:07:43;;;;;;;;;;;8.30;99.90;;;;;;5073161;28;19970;-75
2023/05/17 03:10:09;;;;;;;;;;;8.30;99.90;;;;;;5068822;28;19925;-73
2023/05/17 03:12:35;;;;;;;;;;;8.20;99.90;;;;;;5058321;28;20437;-73
2023/05/17 03:15:01;;;;;;;;;;;8.30;99.90;;;;;;5066902;28;19931;-73
2023/05/17 03:17:29;;;;;;;;;;;8.30;99.90;;;;;;5084105;28;19924;-72
2023/05/17 03:19:55;;;;;;;;;;;8.30;99.90;;;;;;5093261;28;20301;-72
2023/05/17 03:22:21;;;;;;;;;;;8.30;99.90;;;;;;5068449;28;19939;-73
2023/05/17 03:24:46;;;;;;;;;;;8.30;99.90;;;;;;5068686;28;19931;-73
2023/05/17 03:27:12;;;;;;;;;;;8.30;99.90;;;;;;5072011;28;20015;-73
2023/05/17 03:29:37;;;;;;;;;;;8.30;99.90;;;;;;5061950;28;19947;-73
2023/05/17 03:32:03;;;;;;;;;;;8.30;99.90;;;;;;5066255;28;19931;-72
2023/05/17 03:34:28;;;;;;;;;;;8.20;99.90;;;;;;5070580;28;20007;-73
2023/05/17 03:36:54;;;;;;;;;;;8.30;99.90;;;;;;5045617;28;19924;-72
2023/05/17 03:39:19;;;;;;;;;;;8.30;99.90;;;;;;5048111;28;19928;-73
2023/05/17 03:41:45;;;;;;;;;;;8.30;99.90;;;;;;5046136;28;20329;-72
2023/05/17 03:44:11;;;;;;;;;;;8.30;99.90;;;;;;5058419;28;20103;-72
2023/05/17 03:46:36;;;;;;;;;;;8.30;99.90;;;;;;5069662;28;19924;-72
2023/05/17 03:49:04;;;;;;;;;;;8.30;99.90;;;;;;5062212;28;20299;-73
2023/05/17 03:51:30;;;;;;;;;;;8.30;99.90;;;;;;5062428;28;19925;-72
2023/05/17 03:53:56;;;;;;;;;;;8.30;99.90;;;;;;5062402;28;19943;-73
2023/05/17 03:56:22;;;;;;;;;;;8.20;99.90;;;;;;5070558;28;19932;-72
2023/05/17 03:58:47;;;;;;;;;;;8.20;99.90;;;;;;5065279;28;19963;-72
2023/05/17 04:01:13;;;;;;;;;;;8.20;99.90;;;;;;5068304;28;19924;-72
2023/05/17 04:03:38;;;;;;;;;;;8.20;99.90;;;;;;5058717;28;19936;-72
2023/05/17 04:06:05;;;;;;;;;;;8.30;99.90;;;;;;5041116;28;20335;-72
2023/05/17 04:08:34;;;;;;;;;;;8.30;99.90;;;;;;5071235;28;20449;-72
2023/05/17 04:11:08;;;;;;;;;;;8.30;99.90;;;;;;5069619;28;20000;-72
2023/05/17 04:13:37;;;;;;;;;;;8.30;99.90;;;;;;5070590;28;19969;-71
2023/05/17 04:16:02;;;;;;;;;;;8.30;99.90;;;;;;5068758;28;19974;-71
2023/05/17 04:18:28;;;;;;;;;;;8.30;99.90;;;;;;5065229;28;20417;-72
2023/05/17 04:20:54;;;;;;;;;;;8.30;99.90;;;;;;5072036;28;19931;-72
2023/05/17 04:23:19;;;;;;;;;;;8.30;99.90;;;;;;5057155;28;19929;-74
2023/05/17 04:25:45;;;;;;;;;;;8.30;99.90;;;;;;5066402;28;20369;-73
2023/05/17 04:28:11;;;;;;;;;;;8.30;99.90;;;;;;5071737;28;19925;-71
2023/05/17 04:30:41;;;;;;;;;;;8.30;99.90;;;;;;5071092;28;20008;-70
2023/05/17 04:33:06;;;;;;;;;;;8.30;99.90;;;;;;5047972;28;19925;-71
2023/05/17 04:35:32;;;;;;;;;;;8.20;99.90;;;;;;5061431;28;20382;-73
2023/05/17 04:37:57;;;;;;;;;;;8.30;99.90;;;;;;5062815;28;19924;-72
2023/05/17 04:40:23;;;;;;;;;;;8.30;99.90;;;;;;5070195;28;20354;-72
2023/05/17 04:42:49;;;;;;;;;;;8.40;99.90;;;;;;5072304;28;20402;-72
2023/05/17 04:45:15;;;;;;;;;;;8.40;99.90;;;;;;5059799;28;19978;-72
2023/05/17 04:47:40;;;;;;;;;;;8.40;99.90;;;;;;5072333;28;20290;-72
2023/05/17 04:50:06;;;;;;;;;;;8.40;99.90;;;;;;5070172;28;19933;-72
2023/05/17 04:52:31;;;;;;;;;;;8.40;99.90;;;;;;5057046;28;19925;-74
2023/05/17 04:54:57;;;;;;;;;;;8.50;99.90;;;;;;5065206;28;20374;-74
2023/05/17 04:57:23;;;;;;;;;;;8.50;99.90;;;;;;5065019;28;19924;-73
2023/05/17 04:59:48;;;;;;;;;;;8.50;99.90;;;;;;5064248;28;19932;-72
2023/05/17 05:02:19;;;;;;;;;;;8.70;99.90;;;;;;5053649;28;20344;-72
2023/05/17 05:04:45;;;;;;;;;;;8.50;99.90;;;;;;5059211;28;19971;-72
2023/05/17 05:07:10;;;;;;;;;;;8.50;99.90;;;;;;5063517;28;19940;-73
2023/05/17 05:09:36;;;;;;;;;;;8.50;99.90;;;;;;5061140;28;19928;-74
2023/05/17 05:12:02;;;;;;;;;;;8.50;99.90;;;;;;5057032;28;20325;-73
2023/05/17 05:14:29;;;;;;;;;;;8.60;99.90;;;;;;5070399;28;19924;-72
2023/05/17 05:16:55;;;;;;;;;;;8.60;99.90;;;;;;5061681;28;20306;-72
2023/05/17 05:19:21;;;;;;;;;;;8.60;99.90;;;;;;5067304;28;20141;-73
2023/05/17 05:21:46;;;;;;;;;;;8.60;99.90;;;;;;5059543;28;19946;-72
2023/05/17 05:24:12;;;;;;;;;;;8.70;99.90;;;;;;5040030;28;19939;-72
2023/05/17 05:26:38;;;;;;;;;;;8.70;99.90;;;;;;5066881;28;19975;-73
2023/05/17 05:29:06;;;;;;;;;;;8.70;99.90;;;;;;5053428;28;20015;-72
2023/05/17 05:31:32;;;;;;;;;;;8.70;99.90;;;;;;5045374;28;19925;-72
2023/05/17 05:33:57;;;;;;;;;;;8.70;99.90;;;;;;5058885;28;20278;-73
2023/05/17 05:36:23;;;;;;;;;;;8.70;99.90;;;;;;5063370;28;19924;-73
2023/05/17 05:38:48;;;;;;;;;;;8.70;99.90;;;;;;5058376;28;20010;-73
2023/05/17 05:41:14;;;;;;;;;;;8.70;99.90;;;;;;5066294;28;19925;-72
2023/05/17 05:43:40;;;;;;;;;;;8.70;99.90;;;;;;5041836;28;19931;-73
2023/05/17 05:46:06;;;;;;;;;;;8.70;99.90;;;;;;5059018;28;19934;-74
2023/05/17 05:48:32;;;;;;;;;;;8.70;99.90;;;;;;5046404;28;20382;-73
2023/05/17 05:50:58;;;;;;;;;;;8.70;99.90;;;;;;5066009;28;19924;-73
2023/05/17 05:53:24;;;;;;;;;;;8.80;99.90;;;;;;5024327;28;20343;-74
2023/05/17 05:55:49;;;;;;;;;;;8.90;99.90;;;;;;5061900;28;19997;-72
2023/05/17 05:58:15;;;;;;;;;;;9.00;99.90;;;;;;5058775;28;19928;-72
2023/05/17 06:00:40;;;;;;;;;;;9.20;99.90;;;;;;5034419;28;19951;-73
2023/05/17 06:03:06;;;;;;;;;;;9.30;99.90;;;;;;5060148;28;20008;-73
2023/05/17 06:05:32;;;;;;;;;;;9.40;99.90;;;;;;5070732;28;19924;-74
2023/05/17 06:07:58;;;;;;;;;;;9.50;99.90;;;;;;5060321;28;19925;-74
2023/05/17 06:10:23;;;;;;;;;;;9.50;99.90;;;;;;5071722;28;20340;-74
2023/05/17 06:12:49;;;;;;;;;;;9.50;99.90;;;;;;5066238;28;19925;-73
2023/05/17 06:15:14;;;;;;;;;;;9.40;99.90;;;;;;5045283;28;19924;-73
2023/05/17 06:17:40;;;;;;;;;;;9.40;99.90;;;;;;5058625;28;19925;-73
2023/05/17 06:20:06;;;;;;;;;;;9.40;99.90;;;;;;5063654;28;20373;-72
2023/05/17 06:22:31;;;;;;;;;;;9.40;99.90;;;;;;5044607;28;20369;-73
2023/05/17 06:24:57;;;;;;;;;;;9.40;99.90;;;;;;5065094;28;19938;-72
2023/05/17 06:27:23;;;;;;;;;;;9.40;99.90;;;;;;5037987;28;19925;-72
2023/05/17 06:29:48;;;;;;;;;;;9.40;99.90;;;;;;5053176;28;19968;-72
2023/05/17 06:32:14;;;;;;;;;;;9.30;99.90;;;;;;5052575;28;19924;-72
2023/05/17 06:34:39;;;;;;;;;;;9.30;99.90;;;;;;5056137;28;19924;-72
2023/05/17 06:37:05;;;;;;;;;;;9.30;99.90;;;;;;5068705;28;19977;-73
2023/05/17 06:39:30;;;;;;;;;;;9.30;99.90;;;;;;5072837;28;19928;-73
2023/05/17 06:41:56;;;;;;;;;;;9.30;99.90;;;;;;5053747;28;19928;-72
2023/05/17 06:44:21;;;;;;;;;;;9.30;99.90;;;;;;5059410;28;19925;-73
2023/05/17 06:46:47;;;;;;;;;;;9.30;99.90;;;;;;5070090;28;19924;-72
2023/05/17 06:49:12;;;;;;;;;;;9.30;99.90;;;;;;5068522;28;19924;-73
2023/05/17 06:51:38;;;;;;;;;;;9.30;99.90;;;;;;5085053;28;19924;-72
2023/05/17 06:54:03;;;;;;;;;;;9.30;99.90;;;;;;5072846;28;20007;-73
2023/05/17 06:56:30;;;;;;;;;;;9.40;99.90;;;;;;5072198;28;19966;-73
2023/05/17 06:58:55;;;;;;;;;;;9.40;99.90;;;;;;5051570;28;20019;-73
2023/05/17 07:01:21;;;;;;;;;;;9.50;99.90;;;;;;5052322;28;20023;-73
2023/05/17 07:03:46;;;;;;;;;;;9.50;99.90;;;;;;5069676;28;19929;-72
2023/05/17 07:06:12;;;;;;;;;;;9.50;99.90;;;;;;5069170;28;20324;-73
2023/05/17 07:08:39;;;;;;;;;;;9.60;99.90;;;;;;5070352;28;19979;-73
2023/05/17 07:11:04;;;;;;;;;;;9.60;99.90;;;;;;5060420;28;19924;-72
2023/05/17 07:13:30;;;;;;;;;;;9.70;99.90;;;;;;5057838;28;20183;-72
2023/05/17 07:15:55;;;;;;;;;;;9.80;99.90;;;;;;5075808;28;20374;-72
2023/05/17 07:18:21;;;;;;;;;;;10.00;99.90;;;;;;5043529;28;20386;-73
2023/05/17 07:20:46;;;;;;;;;;;10.00;99.90;;;;;;5073464;28;20795;-73
2023/05/17 07:23:12;;;;;;;;;;;10.10;99.90;;;;;;5071588;28;19932;-73
2023/05/17 07:25:39;;;;;;;;;;;10.30;99.90;;;;;;5046029;28;19925;-73
2023/05/17 07:28:05;;;;;;;;;;;10.30;99.90;;;;;;5055950;28;19951;-73
2023/05/17 07:30:30;;;;;;;;;;;10.30;99.90;;;;;;5058597;28;19928;-73
2023/05/17 07:32:56;;;;;;;;;;;10.30;99.90;;;;;;5054621;28;20012;-73
2023/05/17 07:35:21;;;;;;;;;;;10.30;99.90;;;;;;5057357;28;20006;-73
2023/05/17 07:37:47;;;;;;;;;;;10.40;99.90;;;;;;5042187;28;20005;-72
2023/05/17 07:40:12;;;;;;;;;;;10.20;99.90;;;;;;5056045;28;20027;-73
2023/05/17 07:42:38;;;;;;;;;;;10.20;99.90;;;;;;5056228;28;20316;-73
2023/05/17 07:45:03;;;;;;;;;;;10.20;99.90;;;;;;5026079;28;20320;-72
2023/05/17 07:47:30;;;;;;;;;;;10.40;99.90;;;;;;5075391;28;19932;-73
2023/05/17 07:49:55;;;;;;;;;;;10.40;99.90;;;;;;5063533;28;20370;-73
2023/05/17 07:52:20;;;;;;;;;;;10.40;99.90;;;;;;5055427;28;19978;-73
2023/05/17 07:54:46;;;;;;;;;;;10.50;99.90;;;;;;5055053;28;19925;-72
2023/05/17 07:57:12;;;;;;;;;;;10.50;99.90;;;;;;5067167;28;19924;-72
2023/05/17 07:59:37;;;;;;;;;;;10.40;99.90;;;;;;5074896;28;20309;-72
2023/05/17 08:02:03;;;;;;;;;;;10.40;99.90;;;;;;5054942;28;20274;-72
2023/05/17 08:04:28;;;;;;;;;;;10.40;99.90;;;;;;5069991;28;19954;-73
2023/05/17 08:06:54;;;;;;;;;;;10.50;99.90;;;;;;5054928;28;19932;-73
2023/05/17 08:09:20;;;;;;;;;;;10.50;99.90;;;;;;5051204;28;19924;-73
2023/05/17 08:11:46;;;;;;;;;;;10.50;99.90;;;;;;5064585;28;19924;-73
2023/05/17 08:14:12;;;;;;;;;;;10.60;99.90;;;;;;5043175;28;20418;-72
2023/05/17 08:16:38;;;;;;;;;;;10.60;99.90;;;;;;5065326;28;20023;-73
2023/05/17 08:19:03;;;;;;;;;;;10.60;99.90;;;;;;5060288;28;20493;-73
2023/05/17 08:21:29;;;;;;;;;;;10.60;99.90;;;;;;5050358;28;20394;-73
2023/05/17 08:23:54;;;;;;;;;;;10.80;99.90;;;;;;5068696;28;19932;-74
2023/05/17 08:26:20;;;;;;;;;;;10.90;99.90;;;;;;5045008;28;20309;-72
2023/05/17 08:28:45;;;;;;;;;;;11.10;99.90;;;;;;5066487;28;20011;-73
2023/05/17 08:31:11;;;;;;;;;;;11.20;99.90;;;;;;5070664;28;19932;-74
2023/05/17 08:33:39;;;;;;;;;;;11.20;99.80;;;;;;5074679;28;20275;-73
2023/05/17 08:36:07;;;;;;;;;;;11.20;99.30;;;;;;5068001;28;19932;-72
2023/05/17 08:38:33;;;;;;;;;;;11.20;98.50;;;;;;5037467;28;19933;-73
2023/05/17 08:40:58;;;;;;;;;;;11.20;99.00;;;;;;5071126;28;20022;-73
2023/05/17 08:43:25;;;;;;;;;;;11.80;99.50;;;;;;5055217;28;19964;-73
2023/05/17 08:45:51;;;;;;;;;;;11.40;98.70;;;;;;5054039;28;19925;-73
2023/05/17 08:48:18;;;;;;;;;;;11.60;97.90;;;;;;5075051;28;19975;-74
2023/05/17 08:50:49;;;;;;;;;;;11.70;98.40;;;;;;5053940;28;19940;-73
2023/05/17 08:53:15;;;;;;;;;;;11.80;97.60;;;;;;5059517;28;19986;-75
2023/05/17 08:55:42;;;;;;;;;;;11.70;97.60;;;;;;5067200;28;19925;-74
2023/05/17 08:58:10;;;;;;;;;;;11.50;98.40;;;;;;5062732;28;19932;-73
2023/05/17 09:00:35;;;;;;;;;;;11.40;99.20;;;;;;5066204;28;19928;-72
2023/05/17 09:03:01;;;;;;;;;;;11.50;99.30;;;;;;5065836;28;19925;-73
2023/05/17 09:05:27;;;;;;;;;;;11.50;99.70;;;;;;5071565;28;19938;-73
2023/05/17 09:07:53;;;;;;;;;;;11.60;99.80;;;;;;5073032;28;20011;-72
2023/05/17 09:10:18;;;;;;;;;;;11.60;99.90;;;;;;5068781;28;19972;-72
2023/05/17 09:12:44;;;;;;;;;;;11.60;99.90;;;;;;5069338;28;19972;-73
2023/05/17 09:15:14;;;;;;;;;;;11.60;99.90;;;;;;5064268;28;20286;-73
2023/05/17 09:17:41;;;;;;;;;;;11.60;99.90;;;;;;5068497;28;19969;-72
2023/05/17 09:20:08;;;;;;;;;;;11.60;99.50;;;;;;5072059;28;19925;-73
2023/05/17 09:22:34;;;;;;;;;;;11.60;99.90;;;;;;5049857;28;19964;-72
2023/05/17 09:25:03;;;;;;;;;;;11.60;99.20;;;;;;5072628;28;19969;-72
2023/05/17 09:27:29;;;;;;;;;;;11.60;98.80;;;;;;5053724;28;20015;-74
2023/05/17 09:29:55;;;;;;;;;;;11.70;98.50;;;;;;5068442;28;20000;-72
2023/05/17 09:32:20;;;;;;;;;;;11.80;98.20;;;;;;5057979;28;20465;-72
2023/05/17 09:34:47;;;;;;;;;;;11.90;99.00;;;;;;5062596;28;19968;-73
2023/05/17 09:37:16;;;;;;;;;;;12.00;98.40;;;;;;5065043;28;19973;-71
2023/05/17 09:39:46;;;;;;;;;;;11.90;98.70;;;;;;5058927;28;19932;-71
2023/05/17 09:42:12;;;;;;;;;;;11.90;98.60;;;;;;5050244;28;20301;-71
2023/05/17 09:44:48;;;;;;;;;;;11.80;97.90;;;;;;5055334;28;19934;-71
2023/05/17 09:47:40;;;;;;;;;;;11.70;97.80;;;;;;5048722;28;19968;-72
2023/05/17 09:50:15;;;;;;;;;;;11.50;98.50;;;;;;5070282;28;19925;-72
2023/05/17 09:52:41;;;;;;;;;;;11.60;98.00;;;;;;5059472;28;19924;-72
2023/05/17 09:55:10;;;;;;;;;;;11.70;97.00;;;;;;5067456;28;19943;-72
2023/05/17 09:57:36;;;;;;;;;;;11.80;97.40;;;;;;5071622;28;19963;-72
2023/05/17 10:00:04;;;;;;;;;;;12.10;96.30;;;;;;5068602;28;19947;-72
2023/05/17 10:02:31;;;;;;;;;;;12.30;95.90;;;;;;5064096;28;19999;-72
2023/05/17 10:04:57;;;;;;;;;;;12.60;95.70;;;;;;5072531;28;19924;-72
2023/05/17 10:07:24;;;;;;;;;;;12.80;95.50;;;;;;5074105;28;20355;-73
2023/05/17 10:09:50;;;;;;;;;;;12.80;95.70;;;;;;5067876;28;20030;-72
2023/05/17 10:12:17;;;;;;;;;;;12.50;96.10;;;;;;5067990;28;20294;-73
2023/05/17 10:14:43;;;;;;;;;;;12.30;96.10;;;;;;5066465;28;19959;-71
2023/05/17 10:17:10;;;;;;;;;;;12.30;96.60;;;;;;5071638;28;20018;-72
2023/05/17 10:19:36;;;;;;;;;;;12.20;96.20;;;;;;5072958;28;19932;-72
2023/05/17 10:22:02;;;;;;;;;;;12.10;96.90;;;;;;5068813;28;19928;-71
2023/05/17 10:24:29;;;;;;;;;;;12.10;96.80;;;;;;5067101;28;19931;-72
2023/05/17 10:26:56;;;;;;;;;;;12.00;97.00;;;;;;5090374;28;19924;-71
2023/05/17 10:29:22;;;;;;;;;;;12.10;95.70;;;;;;5077214;28;19931;-72
2023/05/17 10:31:49;;;;;;;;;;;12.20;95.50;;;;;;5067915;28;20025;-72
2023/05/17 10:34:15;;;;;;;;;;;12.10;95.50;;;;;;5067511;28;19924;-72
2023/05/17 10:36:42;;;;;;;;;;;12.00;95.70;;;;;;5065849;28;20015;-73
2023/05/17 10:39:08;;;;;;;;;;;12.10;95.20;;;;;;5073031;28;19925;-72
2023/05/17 10:41:35;;;;;;;;;;;12.10;95.40;;;;;;5067964;28;19994;-72
2023/05/17 10:44:06;;;;;;;;;;;12.20;96.60;;;;;;5047466;28;20263;-72
2023/05/17 10:46:32;;;;;;;;;;;12.30;96.60;;;;;;5062953;28;19947;-72
2023/05/17 10:48:59;;;;;;;;;;;12.20;96.40;;;;;;5065217;28;20333;-73
2023/05/17 10:51:28;;;;;;;;;;;12.30;97.50;;;;;;5066787;28;20374;-73
2023/05/17 10:54:06;;;;;;;;;;;12.20;97.70;;;;;;5069551;28;19929;-73
2023/05/17 10:56:32;;;;;;;;;;;12.20;97.50;;;;;;5086823;28;20293;-73
2023/05/17 10:59:13;;;;;;;;;;;12.40;96.40;;;;;;5080667;28;19978;-71
2023/05/17 11:01:59;;;;;;;;;;;12.60;96.00;;;;;;5063652;28;20373;-73
2023/05/17 11:04:25;;;;;;;;;;;12.90;95.80;;;;;;5060039;28;19925;-72
2023/05/17 11:07:11;;;;;;;;;;;13.00;95.50;;;;;;5060232;28;19925;-72
2023/05/17 11:09:38;;;;;;;;;;;13.00;95.30;;;;;;5061141;28;19974;-72
2023/05/17 11:12:05;;;;;;;;;;;12.70;95.80;;;;;;5066772;28;19924;-72
2023/05/17 11:14:49;;;;;;;;;;;12.80;95.20;;;;;;5081749;28;19925;-73
2023/05/17 11:17:19;;;;;;;;;;;12.70;95.50;;;;;;5072370;28;19935;-72
2023/05/17 11:19:53;;;;;;;;;;;12.70;95.40;;;;;;5047648;28;19932;-71
2023/05/17 11:22:26;;;;;;;;;;;13.00;94.90;;;;;;5060633;28;19925;-72
2023/05/17 11:24:52;;;;;;;;;;;13.20;94.80;;;;;;5070133;28;19925;-73
2023/05/17 11:27:26;;;;;;;;;;;13.50;94.70;;;;;;5078198;28;19925;-73
2023/05/17 11:29:52;;;;;;;;;;;13.90;94.70;;;;;;5066088;28;20398;-73
2023/05/17 11:32:24;;;;;;;;;;;14.10;92.90;;;;;;5065561;28;19924;-72
2023/05/17 11:34:51;;;;;;;;;;;14.00;93.40;;;;;;5074254;28;19977;-73
2023/05/17 11:37:26;;;;;;;;;;;14.00;93.50;;;;;;5068173;28;20535;-73
2023/05/17 11:40:00;;;;;;;;;;;14.20;92.90;;;;;;5063699;28;19932;-73
2023/05/17 11:42:26;;;;;;;;;;;14.20;92.90;;;;;;5063870;28;20332;-73
2023/05/17 11:44:55;;;;;;;;;;;13.90;92.50;;;;;;5032354;28;20031;-73
2023/05/17 11:47:21;;;;;;;;;;;13.60;92.90;;;;;;5058735;28;19932;-74
2023/05/17 11:49:50;;;;;;;;;;;13.50;93.40;;;;;;5070253;28;19933;-73
2023/05/17 11:52:16;;;;;;;;;;;13.60;92.90;;;;;;5059197;28;19983;-72
2023/05/17 11:54:42;;;;;;;;;;;13.70;93.00;;;;;;5069416;28;19920;-73
2023/05/17 11:57:08;;;;;;;;;;;13.80;92.80;;;;;;5066884;28;20034;-73
2023/05/17 11:59:41;;;;;;;;;;;14.00;91.70;;;;;;5067063;28;19998;-74
2023/05/17 12:02:07;;;;;;;;;;;14.00;92.00;;;;;;5074296;28;19925;-74
2023/05/17 12:04:37;;;;;;;;;;;14.00;91.40;;;;;;5058112;28;19925;-72
2023/05/17 12:07:04;;;;;;;;;;;14.20;92.60;;;;;;5038625;28;19946;-73
2023/05/17 12:09:31;;;;;;;;;;;14.20;92.70;;;;;;5071944;28;19931;-74
2023/05/17 12:11:58;;;;;;;;;;;14.00;92.20;;;;;;5080969;28;19931;-72
2023/05/17 12:14:24;;;;;;;;;;;13.80;92.00;;;;;;5047759;28;20393;-73
2023/05/17 12:16:51;;;;;;;;;;;13.60;92.80;;;;;;5060661;28;19925;-72
2023/05/17 12:19:18;;;;;;;;;;;13.70;93.70;;;;;;5052440;28;19925;-72
2023/05/17 12:21:45;;;;;;;;;;;13.80;93.10;;;;;;5074345;28;19993;-72
2023/05/17 12:24:10;;;;;;;;;;;13.80;93.10;;;;;;5088649;28;19924;-74
2023/05/17 12:26:41;;;;;;;;;;;13.70;92.60;;;;;;5069412;28;19929;-74
2023/05/17 12:29:07;;;;;;;;;;;13.60;92.20;;;;;;5067776;28;19925;-72
2023/05/17 12:31:33;;;;;;;;;;;13.50;92.50;;;;;;5066222;28;19925;-73
2023/05/17 12:34:03;;;;;;;;;;;13.50;92.30;;;;;;5052144;28;19991;-73
2023/05/17 12:36:30;;;;;;;;;;;13.40;92.40;;;;;;5049291;28;19924;-74
2023/05/17 12:38:56;;;;;;;;;;;13.20;93.20;;;;;;5072217;28;19935;-73
2023/05/17 12:41:24;;;;;;;;;;;13.10;93.00;;;;;;5061049;28;19952;-73
2023/05/17 12:43:59;;;;;;;;;;;13.00;93.20;;;;;;5062389;28;19928;-73
2023/05/17 12:46:26;;;;;;;;;;;13.00;92.40;;;;;;5055831;28;19979;-74
2023/05/17 12:48:52;;;;;;;;;;;12.90;93.10;;;;;;5068541;28;20469;-73
2023/05/17 12:51:22;;;;;;;;;;;12.90;93.10;;;;;;5067839;28;20463;-73
2023/05/17 12:53:58;;;;;;;;;;;12.80;93.60;;;;;;5066089;28;19924;-74
2023/05/17 12:56:27;;;;;;;;;;;12.70;93.80;;;;;;5047133;28;19924;-72
2023/05/17 12:59:24;;;;;;;;;;;12.90;94.20;;;;;;5052573;28;20008;-73
2023/05/17 13:01:57;;;;;;;;;;;13.00;93.10;;;;;;5034248;28;19933;-73
2023/05/17 13:04:32;;;;;;;;;;;12.90;92.80;;;;;;5043918;28;20015;-74
2023/05/17 13:07:00;;;;;;;;;;;13.10;92.70;;;;;;5034145;28;19983;-73
2023/05/17 13:09:29;;;;;;;;;;;13.00;93.00;;;;;;5039265;28;20451;-73
2023/05/17 13:12:00;;;;;;;;;;;12.90;93.50;;;;;;5039822;28;19968;-73
2023/05/17 13:14:32;;;;;;;;;;;12.90;93.70;;;;;;5037534;28;20374;-74
2023/05/17 13:16:58;;;;;;;;;;;13.00;94.30;;;;;;5044026;28;20333;-73
2023/05/17 13:19:23;;;;;;;;;;;13.10;94.60;;;;;;5043138;28;19925;-73
2023/05/17 13:21:49;;;;;;;;;;;13.40;92.90;;;;;;5041237;28;19976;-73
2023/05/17 13:24:14;;;;;;;;;;;13.30;92.90;;;;;;5052148;28;20312;-73
2023/05/17 13:26:40;;;;;;;;;;;13.20;93.10;;;;;;5042909;28;19932;-73
2023/05/17 13:29:05;;;;;;;;;;;13.00;93.40;;;;;;5037412;28;19933;-72
2023/05/17 13:31:31;;;;;;;;;;;12.80;93.80;;;;;;5049668;28;19924;-72
2023/05/17 13:33:56;;;;;;;;;;;12.70;94.30;;;;;;5050749;28;19972;-72
2023/05/17 13:36:22;;;;;;;;;;;12.80;94.90;;;;;;5035192;28;20437;-73
2023/05/17 13:38:48;;;;;;;;;;;12.90;94.60;;;;;;5049719;28;20451;-72
2023/05/17 13:41:14;;;;;;;;;;;13.20;94.00;;;;;;5050485;28;19924;-73
2023/05/17 13:43:40;;;;;;;;;;;13.30;93.30;;;;;;5038502;28;19978;-73
2023/05/17 13:46:05;;;;;;;;;;;13.20;93.50;;;;;;5042494;28;20019;-72
2023/05/17 13:48:31;;;;;;;;;;;13.20;93.20;;;;;;5050725;28;19925;-72
2023/05/17 13:50:57;;;;;;;;;;;13.20;93.30;;;;;;5050083;28;19924;-72
2023/05/17 13:53:22;;;;;;;;;;;13.10;93.10;;;;;;5050727;28;19925;-72
2023/05/17 13:55:48;;;;;;;;;;;13.10;93.20;;;;;;5037452;28;20302;-71
2023/05/17 13:58:15;;;;;;;;;;;13.00;93.10;;;;;;5064932;28;19936;-71
2023/05/17 14:00:42;;;;;;;;;;;13.00;93.20;;;;;;5066314;28;19928;-73
2023/05/17 14:03:09;;;;;;;;;;;12.80;93.40;;;;;;5057501;28;19978;-74
2023/05/17 14:05:35;;;;;;;;;;;12.70;94.20;;;;;;5067417;28;19925;-74
2023/05/17 14:08:02;;;;;;;;;;;12.80;94.10;;;;;;5069961;28;19924;-74
2023/05/17 14:10:28;;;;;;;;;;;12.80;94.50;;;;;;5064736;28;19932;-73
2023/05/17 14:12:53;;;;;;;;;;;12.80;94.30;;;;;;5063856;28;19929;-73
2023/05/17 14:15:23;;;;;;;;;;;12.90;95.40;;;;;;5053763;28;20012;-73
2023/05/17 14:17:49;;;;;;;;;;;13.00;94.60;;;;;;5062468;28;19925;-73
2023/05/17 14:20:14;;;;;;;;;;;13.30;94.40;;;;;;5064331;28;20362;-73
2023/05/17 14:22:40;;;;;;;;;;;13.40;94.50;;;;;;5065176;28;19980;-73